createdAt,value
2023-01-19T00:00:45.014Z,99239.59
2023-01-19T00:03:16.085Z,99241.59
2023-01-19T00:05:44.764Z,99242.28
2023-01-19T00:08:16.021Z,99240.06
2023-01-19T00:10:48.413Z,99245.31
2023-01-19T00:13:17.136Z,99253.81
2023-01-19T00:15:47.036Z,99256.22
2023-01-19T00:18:15.119Z,99259.63
2023-01-19T00:20:43.571Z,99262.25
2023-01-19T00:23:11.760Z,99260.34
2023-01-19T00:25:42.520Z,99273.25
2023-01-19T00:28:11.596Z,99263.72
2023-01-19T00:30:40.613Z,99276.87
2023-01-19T00:33:10.066Z,99275.94
2023-01-19T00:35:38.040Z,99271.28
2023-01-19T00:38:06.400Z,99272.91
2023-01-19T00:40:34.352Z,99280.09
2023-01-19T00:43:03.234Z,99276.53
2023-01-19T00:45:32.372Z,99281.75
2023-01-19T00:48:00.306Z,99278.50
2023-01-19T00:50:31.455Z,99283.81
2023-01-19T00:53:03.943Z,99281.97
2023-01-19T00:55:33.352Z,99279.34
2023-01-19T00:58:02.903Z,99289.03
2023-01-19T01:00:31.268Z,99292.91
2023-01-19T01:02:59.809Z,99287.69
2023-01-19T01:05:29.762Z,99298.38
2023-01-19T01:07:57.783Z,99296.59
2023-01-19T01:10:28.897Z,99296.78
2023-01-19T01:12:59.321Z,99296.84
2023-01-19T01:15:29.948Z,99297.44
2023-01-19T01:17:58.376Z,99298.22
2023-01-19T01:20:30.485Z,99296.44
2023-01-19T01:22:59.070Z,99293.91
2023-01-19T01:25:31.044Z,99297.38
2023-01-19T01:27:59.434Z,99298.47
2023-01-19T01:30:27.526Z,99298.84
2023-01-19T01:32:55.870Z,99300.66
2023-01-19T01:35:24.264Z,99301.94
2023-01-19T01:37:53.616Z,99309.88
2023-01-19T01:40:21.676Z,99308.16
2023-01-19T01:42:49.973Z,99301.16
2023-01-19T01:45:31.553Z,99316.78
2023-01-19T01:48:04.150Z,99308.16
2023-01-19T01:50:35.226Z,99320.47
2023-01-19T01:53:12.996Z,99311.69
2023-01-19T01:55:44.317Z,99314.31
2023-01-19T01:58:13.187Z,99313.53
2023-01-19T02:00:55.586Z,99314.31
2023-01-19T02:03:25.745Z,99318.56
2023-01-19T02:05:57.612Z,99313.28
2023-01-19T02:08:50.834Z,99306.41
2023-01-19T02:11:36.947Z,99296.16
2023-01-19T02:14:06.229Z,99300.63
2023-01-19T02:16:34.891Z,99304.41
2023-01-19T02:19:03.177Z,99303.34
2023-01-19T02:21:42.870Z,99306.81
2023-01-19T02:24:12.464Z,99308.03
2023-01-19T02:26:43.730Z,99304.47
2023-01-19T02:29:13.976Z,99307.22
2023-01-19T02:31:42.469Z,99312.41
2023-01-19T02:34:15.369Z,99307.44
2023-01-19T02:36:50.005Z,99300.56
2023-01-19T02:39:23.506Z,99303.25
2023-01-19T02:41:56.004Z,99308.34
2023-01-19T02:44:25.301Z,99312.88
2023-01-19T02:46:54.756Z,99313.75
2023-01-19T02:49:23.299Z,99308.53
2023-01-19T02:51:51.415Z,99314.22
2023-01-19T02:54:43.009Z,99315.91
2023-01-19T02:57:23.513Z,99308.13
2023-01-19T03:00:03.450Z,99306.56
2023-01-19T03:02:40.369Z,99309.13
2023-01-19T03:05:22.972Z,99308.97
2023-01-19T03:08:00.120Z,99315.06
2023-01-19T03:10:38.374Z,99310.66
2023-01-19T03:13:12.479Z,99308.03
2023-01-19T03:15:47.954Z,99320.28
2023-01-19T03:18:20.112Z,99313.34
2023-01-19T03:20:53.574Z,99316.97
2023-01-19T03:23:24.648Z,99311.03
2023-01-19T03:25:57.559Z,99316.34
2023-01-19T03:28:27.665Z,99317.19
2023-01-19T03:31:01.634Z,99318.13
2023-01-19T03:33:32.851Z,99318.13
2023-01-19T03:36:06.319Z,99319.78
2023-01-19T03:38:39.469Z,99311.34
2023-01-19T03:41:12.525Z,99314.59
2023-01-19T03:43:41.796Z,99306.91
2023-01-19T03:46:11.731Z,99308.75
2023-01-19T03:48:39.974Z,99304.56
2023-01-19T03:51:10.814Z,99307.37
2023-01-19T03:53:38.922Z,99300.59
2023-01-19T03:56:15.792Z,99300.66
2023-01-19T03:58:44.224Z,99300.91
2023-01-19T04:01:12.384Z,99299.59
2023-01-19T04:03:41.071Z,99298.75
2023-01-19T04:06:09.871Z,99301.16
2023-01-19T04:08:38.171Z,99312.47
2023-01-19T04:11:06.567Z,99312.66
2023-01-19T04:13:36.356Z,99329.41
2023-01-19T04:16:06.534Z,99323.50
2023-01-19T04:18:35.863Z,99332.19
2023-01-19T04:21:06.579Z,99330.87
2023-01-19T04:23:34.955Z,99335.78
2023-01-19T04:26:05.436Z,99320.38
2023-01-19T04:28:37.017Z,99330.66
2023-01-19T04:31:06.211Z,99322.87
2023-01-19T04:33:35.270Z,99329.81
2023-01-19T04:36:04.196Z,99313.28
2023-01-19T04:38:32.665Z,99322.72
2023-01-19T04:41:00.742Z,99316.88
2023-01-19T04:43:28.732Z,99320.47
2023-01-19T04:45:58.770Z,99320.72
2023-01-19T04:48:26.793Z,99329.47
2023-01-19T04:50:54.768Z,99319.81
2023-01-19T04:53:23.060Z,99313.44
2023-01-19T04:55:54.719Z,99318.59
2023-01-19T04:58:23.020Z,99323.88
2023-01-19T05:00:52.248Z,99325.63
2023-01-19T05:03:21.880Z,99318.91
2023-01-19T05:05:50.093Z,99326.81
2023-01-19T05:08:17.992Z,99318.28
2023-01-19T05:10:46.081Z,99318.41
2023-01-19T05:13:14.570Z,99314.56
2023-01-19T05:15:42.617Z,99322.72
2023-01-19T05:18:10.787Z,99320.69
2023-01-19T05:20:41.220Z,99319.72
2023-01-19T05:23:09.270Z,99321.41
2023-01-19T05:25:37.237Z,99317.81
2023-01-19T05:28:05.860Z,99323.81
2023-01-19T05:30:33.883Z,99316.75
2023-01-19T05:33:02.311Z,99322.13
2023-01-19T05:35:36.131Z,99326.97
2023-01-19T05:38:05.972Z,99327.56
2023-01-19T05:40:34.339Z,99321.56
2023-01-19T05:43:05.198Z,99322.59
2023-01-19T05:45:33.906Z,99332.19
2023-01-19T05:48:02.353Z,99331.88
2023-01-19T05:50:30.444Z,99326.50
2023-01-19T05:53:00.178Z,99322.28
2023-01-19T05:55:30.023Z,99325.19
2023-01-19T05:57:57.996Z,99332.97
2023-01-19T06:00:27.546Z,99323.19
2023-01-19T06:02:55.818Z,99332.50
2023-01-19T06:05:23.901Z,99324.34
2023-01-19T06:07:52.610Z,99337.72
2023-01-19T06:10:21.110Z,99335.00
2023-01-19T06:12:51.777Z,99341.06
2023-01-19T06:15:19.718Z,99340.25
2023-01-19T06:17:48.100Z,99351.44
2023-01-19T06:20:16.055Z,99352.16
2023-01-19T06:22:44.145Z,99353.94
2023-01-19T06:25:13.019Z,99363.25
2023-01-19T06:27:45.015Z,99361.59
2023-01-19T06:30:15.712Z,99362.50
2023-01-19T06:32:46.085Z,99355.53
2023-01-19T06:35:15.169Z,99354.50
2023-01-19T06:37:43.157Z,99352.19
2023-01-19T06:40:14.332Z,99355.72
2023-01-19T06:42:42.907Z,99354.88
2023-01-19T06:45:11.598Z,99358.94
2023-01-19T06:47:40.845Z,99364.84
2023-01-19T06:50:10.485Z,99365.69
2023-01-19T06:52:42.349Z,99360.87
2023-01-19T06:55:11.661Z,99357.00
2023-01-19T06:57:42.485Z,99356.16
2023-01-19T07:00:11.829Z,99361.97
2023-01-19T07:02:43.652Z,99357.56
2023-01-19T07:05:14.542Z,99354.03
2023-01-19T07:07:44.839Z,99354.53
2023-01-19T07:10:15.678Z,99358.63
2023-01-19T07:12:46.404Z,99360.63
2023-01-19T07:15:15.730Z,99362.88
2023-01-19T07:17:45.340Z,99370.22
2023-01-19T07:20:15.117Z,99375.00
2023-01-19T07:22:45.706Z,99376.13
2023-01-19T07:25:13.952Z,99379.28
2023-01-19T07:27:42.035Z,99379.84
2023-01-19T07:30:11.420Z,99379.44
2023-01-19T07:32:39.584Z,99385.47
2023-01-19T07:35:10.150Z,99399.13
2023-01-19T07:37:38.540Z,99398.47
2023-01-19T07:40:07.422Z,99409.62
2023-01-19T07:42:35.508Z,99411.25
2023-01-19T07:45:04.316Z,99417.41
2023-01-19T07:47:32.450Z,99413.34
2023-01-19T07:50:00.468Z,99414.91
2023-01-19T07:52:30.133Z,99415.31
2023-01-19T07:54:59.214Z,99417.53
2023-01-19T07:57:27.623Z,99407.69
2023-01-19T07:59:55.819Z,99409.91
2023-01-19T08:02:23.918Z,99406.63
2023-01-19T08:04:52.343Z,99413.31
2023-01-19T08:07:20.573Z,99417.09
2023-01-19T08:09:52.619Z,99420.38
2023-01-19T08:12:21.125Z,99423.22
2023-01-19T08:14:49.211Z,99423.91
2023-01-19T08:17:17.300Z,99428.28
2023-01-19T08:19:45.591Z,99425.19
2023-01-19T08:22:13.643Z,99425.06
2023-01-19T08:24:41.615Z,99435.97
2023-01-19T08:27:14.100Z,99441.00
2023-01-19T08:29:42.080Z,99447.47
2023-01-19T08:32:10.464Z,99448.75
2023-01-19T08:34:38.569Z,99453.69
2023-01-19T08:37:06.786Z,99453.59
2023-01-19T08:39:35.061Z,99452.97
2023-01-19T08:42:03.147Z,99441.34
2023-01-19T08:44:32.710Z,99449.50
2023-01-19T08:47:01.087Z,99448.97
2023-01-19T08:49:29.133Z,99449.50
2023-01-19T08:51:57.233Z,99452.66
2023-01-19T08:54:25.731Z,99451.13
2023-01-19T08:56:54.070Z,99450.06
2023-01-19T08:59:21.965Z,99450.38
2023-01-19T09:01:51.719Z,99448.91
2023-01-19T09:04:19.857Z,99447.66
2023-01-19T09:06:48.356Z,99454.03
2023-01-19T09:09:16.591Z,99454.75
2023-01-19T09:11:44.566Z,99464.12
2023-01-19T09:14:12.534Z,99460.41
2023-01-19T09:16:40.831Z,99465.75
2023-01-19T09:19:10.228Z,99464.19
2023-01-19T09:21:38.531Z,99459.63
2023-01-19T09:24:07.329Z,99453.34
2023-01-19T09:26:36.588Z,99458.59
2023-01-19T09:29:04.707Z,99460.22
2023-01-19T09:31:33.014Z,99458.66
2023-01-19T09:34:00.966Z,99458.66
2023-01-19T09:36:31.048Z,99467.87
2023-01-19T09:38:59.264Z,99470.03
2023-01-19T09:41:27.804Z,99470.56
2023-01-19T09:43:58.785Z,99467.44
2023-01-19T09:46:34.873Z,99455.94
2023-01-19T09:49:06.968Z,99452.47
2023-01-19T09:51:40.502Z,99453.16
2023-01-19T09:54:14.644Z,99446.88
2023-01-19T09:56:43.778Z,99448.34
2023-01-19T09:59:20.530Z,99450.66
2023-01-19T10:02:06.007Z,99461.41
2023-01-19T10:04:38.772Z,99456.50
2023-01-19T10:07:13.669Z,99460.13
2023-01-19T10:09:52.748Z,99453.22
2023-01-19T10:12:34.101Z,99460.47
2023-01-19T10:15:14.366Z,99460.37
2023-01-19T10:17:53.029Z,99463.56
2023-01-19T10:20:28.922Z,99458.44
2023-01-19T10:23:00.446Z,99463.09
2023-01-19T10:25:29.214Z,99458.34
2023-01-19T10:27:59.576Z,99449.16
2023-01-19T10:30:30.474Z,99447.75
2023-01-19T10:32:59.338Z,99441.22
2023-01-19T10:35:27.687Z,99446.34
2023-01-19T10:38:00.667Z,99451.31
2023-01-19T10:40:34.654Z,99459.16
2023-01-19T10:43:03.128Z,99459.50
2023-01-19T10:45:32.616Z,99460.00
2023-01-19T10:48:07.882Z,99452.16
2023-01-19T10:50:40.095Z,99441.59
2023-01-19T10:53:21.425Z,99443.56
2023-01-19T10:56:10.258Z,99440.06
2023-01-19T10:58:39.853Z,99442.28
2023-01-19T11:01:17.572Z,99440.31
2023-01-19T11:03:46.173Z,99437.94
2023-01-19T11:06:23.548Z,99444.06
2023-01-19T11:08:53.887Z,99436.06
2023-01-19T11:11:24.612Z,99435.56
2023-01-19T11:14:11.649Z,99433.75
2023-01-19T11:16:40.448Z,99430.00
2023-01-19T11:19:20.087Z,99417.66
2023-01-19T11:21:48.672Z,99411.19
2023-01-19T11:24:18.361Z,99404.50
2023-01-19T11:26:48.963Z,99400.06
2023-01-19T11:29:20.871Z,99401.00
2023-01-19T11:31:50.542Z,99402.09
2023-01-19T11:34:33.172Z,99394.88
2023-01-19T11:37:03.306Z,99400.88
2023-01-19T11:39:47.611Z,99395.12
2023-01-19T11:42:17.086Z,99398.84
2023-01-19T11:44:53.043Z,99392.09
2023-01-19T11:47:28.302Z,99388.41
2023-01-19T11:50:02.486Z,99392.25
2023-01-19T11:52:37.028Z,99383.56
2023-01-19T11:55:18.527Z,99383.72
2023-01-19T11:57:49.150Z,99386.19
2023-01-19T12:00:29.633Z,99386.06
2023-01-19T12:03:05.382Z,99376.13
2023-01-19T12:05:39.085Z,99383.44
2023-01-19T12:08:15.518Z,99389.22
2023-01-19T12:10:46.402Z,99389.78
2023-01-19T12:13:25.670Z,99396.63
2023-01-19T12:15:58.809Z,99383.44
2023-01-19T12:18:31.399Z,99403.31
2023-01-19T12:21:02.256Z,99393.25
2023-01-19T12:23:50.465Z,99397.16
2023-01-19T12:26:28.184Z,99388.59
2023-01-19T12:29:01.131Z,99386.75
2023-01-19T12:31:29.428Z,99388.66
2023-01-19T12:34:40.596Z,99390.91
2023-01-19T12:37:33.277Z,99391.69
2023-01-19T12:40:05.684Z,99395.31
2023-01-19T12:42:34.810Z,99391.31
2023-01-19T12:45:08.479Z,99387.25
2023-01-19T12:47:37.834Z,99389.56
2023-01-19T12:50:12.430Z,99391.75
2023-01-19T12:52:49.413Z,99391.91
2023-01-19T12:55:23.195Z,99393.81
2023-01-19T12:57:57.750Z,99384.69
2023-01-19T13:00:32.960Z,99384.69
2023-01-19T13:03:02.173Z,99387.22
2023-01-19T13:05:58.300Z,99388.16
2023-01-19T13:08:31.133Z,99389.66
2023-01-19T13:11:23.729Z,99393.88
2023-01-19T13:14:35.206Z,99384.28
2023-01-19T13:17:07.934Z,99399.91
2023-01-19T13:19:53.843Z,99397.16
2023-01-19T13:23:10.420Z,99398.94
2023-01-19T13:25:40.429Z,99401.69
2023-01-19T13:28:12.023Z,99399.34
2023-01-19T13:30:54.479Z,99404.81
2023-01-19T13:33:25.760Z,99399.22
2023-01-19T13:35:56.897Z,99401.97
2023-01-19T13:38:26.952Z,99398.81
2023-01-19T13:40:58.083Z,99395.53
2023-01-19T13:43:29.990Z,99395.75
2023-01-19T13:45:58.126Z,99388.44
2023-01-19T13:48:26.676Z,99404.94
2023-01-19T13:51:00.291Z,99399.44
2023-01-19T13:53:30.340Z,99410.00
2023-01-19T13:56:16.725Z,99404.38
2023-01-19T13:58:45.376Z,99411.63
2023-01-19T14:01:23.794Z,99415.13
2023-01-19T14:03:52.953Z,99408.69
2023-01-19T14:06:32.280Z,99415.88
2023-01-19T14:09:08.332Z,99416.31
2023-01-19T14:11:37.876Z,99406.56
2023-01-19T14:14:06.327Z,99407.53
2023-01-19T14:16:34.365Z,99403.41
2023-01-19T14:19:04.634Z,99412.53
2023-01-19T14:21:40.705Z,99414.00
2023-01-19T14:24:10.583Z,99422.03
2023-01-19T14:26:46.479Z,99422.81
2023-01-19T14:29:18.476Z,99424.59
2023-01-19T14:31:48.089Z,99427.03
2023-01-19T14:34:37.143Z,99430.97
2023-01-19T14:37:14.177Z,99423.94
2023-01-19T14:39:46.413Z,99423.66
2023-01-19T14:42:21.722Z,99430.72
2023-01-19T14:44:52.627Z,99430.91
2023-01-19T14:47:34.795Z,99424.97
2023-01-19T14:50:23.495Z,99439.94
2023-01-19T14:52:58.024Z,99445.56
2023-01-19T14:55:34.875Z,99439.94
2023-01-19T14:58:11.221Z,99440.97
2023-01-19T15:00:39.657Z,99445.03
2023-01-19T15:03:09.868Z,99446.91
2023-01-19T15:05:38.219Z,99450.59
2023-01-19T15:08:07.885Z,99459.81
2023-01-19T15:10:37.283Z,99472.06
2023-01-19T15:13:06.648Z,99465.19
2023-01-19T15:15:36.062Z,99467.44
2023-01-19T15:18:06.067Z,99468.19
2023-01-19T15:20:34.146Z,99470.25
2023-01-19T15:23:02.336Z,99470.91
2023-01-19T15:25:31.645Z,99482.22
2023-01-19T15:28:00.538Z,99472.34
2023-01-19T15:30:31.170Z,99478.53
2023-01-19T15:32:59.965Z,99482.91
2023-01-19T15:35:28.071Z,99484.38
2023-01-19T15:37:56.200Z,99490.50
2023-01-19T15:40:24.864Z,99485.97
2023-01-19T15:42:52.862Z,99494.19
2023-01-19T15:45:34.869Z,99496.91
2023-01-19T15:48:05.295Z,99490.22
2023-01-19T15:50:34.367Z,99489.00
2023-01-19T15:53:02.589Z,99491.56
2023-01-19T15:55:30.983Z,99494.56
2023-01-19T15:58:01.648Z,99490.87
2023-01-19T16:00:32.775Z,99490.34
2023-01-19T16:03:02.672Z,99499.50
2023-01-19T16:05:42.631Z,99507.81
2023-01-19T16:08:12.156Z,99507.81
2023-01-19T16:10:40.835Z,99509.25
2023-01-19T16:13:09.179Z,99505.94
2023-01-19T16:15:40.003Z,99507.69
2023-01-19T16:18:08.103Z,99512.13
2023-01-19T16:20:36.235Z,99520.31
2023-01-19T16:23:20.104Z,99516.16
2023-01-19T16:25:57.184Z,99521.72
2023-01-19T16:28:26.305Z,99518.63
2023-01-19T16:30:55.782Z,99523.13
2023-01-19T16:33:24.123Z,99516.16
2023-01-19T16:35:53.145Z,99528.41
2023-01-19T16:38:23.162Z,99531.03
2023-01-19T16:40:51.452Z,99524.50
2023-01-19T16:43:20.067Z,99530.94
2023-01-19T16:46:00.011Z,99533.88
2023-01-19T16:48:29.029Z,99531.81
2023-01-19T16:51:02.846Z,99538.25
2023-01-19T16:53:32.048Z,99538.41
2023-01-19T16:55:59.954Z,99540.91
2023-01-19T16:58:28.392Z,99536.13
2023-01-19T17:00:58.215Z,99549.81
2023-01-19T17:03:27.107Z,99541.75
2023-01-19T17:05:55.195Z,99546.31
2023-01-19T17:08:23.702Z,99552.53
2023-01-19T17:10:51.781Z,99545.13
2023-01-19T17:13:20.051Z,99548.81
2023-01-19T17:15:48.991Z,99552.44
2023-01-19T17:18:18.556Z,99551.44
2023-01-19T17:20:48.694Z,99551.34
2023-01-19T17:23:17.279Z,99552.19
2023-01-19T17:25:53.034Z,99555.38
2023-01-19T17:28:21.573Z,99552.75
2023-01-19T17:30:51.436Z,99556.72
2023-01-19T17:33:21.892Z,99559.78
2023-01-19T17:35:50.525Z,99559.34
2023-01-19T17:38:18.603Z,99562.62
2023-01-19T17:40:46.558Z,99567.63
2023-01-19T17:43:14.844Z,99566.78
2023-01-19T17:45:42.901Z,99568.75
2023-01-19T17:48:13.097Z,99571.75
2023-01-19T17:50:42.901Z,99576.00
2023-01-19T17:53:11.382Z,99580.44
2023-01-19T17:55:39.480Z,99588.78
2023-01-19T17:58:07.845Z,99593.19
2023-01-19T18:00:35.809Z,99589.53
2023-01-19T18:03:04.047Z,99593.03
2023-01-19T18:05:32.065Z,99592.34
2023-01-19T18:08:01.361Z,99600.09
2023-01-19T18:10:29.663Z,99597.44
2023-01-19T18:12:57.680Z,99601.09
2023-01-19T18:15:25.694Z,99604.75
2023-01-19T18:17:54.088Z,99605.69
2023-01-19T18:20:22.076Z,99603.22
2023-01-19T18:22:50.238Z,99604.84
2023-01-19T18:25:20.466Z,99614.44
2023-01-19T18:27:48.779Z,99612.75
2023-01-19T18:30:18.240Z,99618.94
2023-01-19T18:32:46.855Z,99614.81
2023-01-19T18:35:14.941Z,99611.22
2023-01-19T18:37:43.003Z,99616.59
2023-01-19T18:40:12.564Z,99616.69
2023-01-19T18:42:42.173Z,99616.75
2023-01-19T18:45:11.224Z,99620.44
2023-01-19T18:47:40.482Z,99620.53
2023-01-19T18:50:09.570Z,99622.31
2023-01-19T18:52:37.681Z,99620.63
2023-01-19T18:55:06.759Z,99622.66
2023-01-19T18:57:35.482Z,99618.16
2023-01-19T19:00:06.337Z,99620.81
2023-01-19T19:02:34.738Z,99619.25
2023-01-19T19:05:02.926Z,99620.22
2023-01-19T19:07:31.188Z,99613.34
2023-01-19T19:09:59.683Z,99622.19
2023-01-19T19:12:27.784Z,99623.88
2023-01-19T19:14:55.833Z,99625.66
2023-01-19T19:17:25.449Z,99621.16
2023-01-19T19:19:53.513Z,99630.84
2023-01-19T19:22:21.686Z,99626.94
2023-01-19T19:24:50.396Z,99636.53
2023-01-19T19:27:18.471Z,99638.41
2023-01-19T19:29:48.100Z,99641.34
2023-01-19T19:32:20.256Z,99642.84
2023-01-19T19:34:52.554Z,99640.88
2023-01-19T19:37:21.207Z,99644.25
2023-01-19T19:39:49.399Z,99645.97
2023-01-19T19:42:17.483Z,99646.12
2023-01-19T19:44:45.953Z,99647.25
2023-01-19T19:47:14.029Z,99652.53
2023-01-19T19:49:42.109Z,99649.13
2023-01-19T19:52:11.668Z,99651.78
2023-01-19T19:54:40.421Z,99653.62
2023-01-19T19:57:08.510Z,99660.78
2023-01-19T19:59:36.933Z,99657.19
2023-01-19T20:02:05.093Z,99664.16
2023-01-19T20:04:33.419Z,99664.16
2023-01-19T20:07:01.376Z,99656.19
2023-01-19T20:09:30.842Z,99665.69
2023-01-19T20:11:59.104Z,99660.44
2023-01-19T20:14:27.191Z,99665.69
2023-01-19T20:16:55.359Z,99667.41
2023-01-19T20:19:23.799Z,99661.19
2023-01-19T20:21:52.224Z,99668.25
2023-01-19T20:24:21.337Z,99681.31
2023-01-19T20:26:52.689Z,99674.38
2023-01-19T20:29:22.212Z,99686.03
2023-01-19T20:31:52.850Z,99693.22
2023-01-19T20:34:22.878Z,99699.53
2023-01-19T20:36:53.431Z,99699.00
2023-01-19T20:39:22.971Z,99704.22
2023-01-19T20:41:52.867Z,99714.88
2023-01-19T20:44:23.945Z,99712.34
2023-01-19T20:46:53.699Z,99707.16
2023-01-19T20:49:22.026Z,99722.78
2023-01-19T20:51:51.932Z,99715.59
2023-01-19T20:54:22.789Z,99708.53
2023-01-19T20:56:52.313Z,99727.91
2023-01-19T20:59:20.929Z,99721.63
2023-01-19T21:01:49.870Z,99727.66
2023-01-19T21:04:18.112Z,99727.56
2023-01-19T21:06:46.784Z,99740.53
2023-01-19T21:09:15.125Z,99750.25
2023-01-19T21:11:43.031Z,99744.91
2023-01-19T21:14:12.725Z,99749.16
2023-01-19T21:16:42.561Z,99750.09
2023-01-19T21:19:10.603Z,99759.78
2023-01-19T21:21:39.124Z,99760.62
2023-01-19T21:24:07.504Z,99760.72
2023-01-19T21:26:35.985Z,99763.41
2023-01-19T21:29:04.881Z,99770.47
2023-01-19T21:31:34.303Z,99764.25
2023-01-19T21:34:02.498Z,99775.50
2023-01-19T21:36:30.860Z,99773.81
2023-01-19T21:39:00.853Z,99772.00
2023-01-19T21:41:30.916Z,99781.53
2023-01-19T21:44:01.139Z,99779.81
2023-01-19T21:46:30.508Z,99785.19
2023-01-19T21:49:01.665Z,99786.88
2023-01-19T21:51:33.422Z,99787.72
2023-01-19T21:54:01.923Z,99798.34
2023-01-19T21:56:30.928Z,99797.41
2023-01-19T21:59:02.216Z,99802.87
2023-01-19T22:01:30.766Z,99803.00
2023-01-19T22:04:01.249Z,99803.78
2023-01-19T22:06:30.311Z,99807.50
2023-01-19T22:09:00.640Z,99813.72
2023-01-19T22:11:30.076Z,99811.25
2023-01-19T22:13:59.758Z,99813.44
2023-01-19T22:16:28.288Z,99812.59
2023-01-19T22:18:59.590Z,99814.28
2023-01-19T22:21:32.021Z,99819.47
2023-01-19T22:24:01.712Z,99824.91
2023-01-19T22:26:31.617Z,99825.91
2023-01-19T22:29:01.180Z,99835.41
2023-01-19T22:31:30.875Z,99839.34
2023-01-19T22:33:59.248Z,99834.75
2023-01-19T22:36:30.489Z,99830.50
2023-01-19T22:39:00.323Z,99837.81
2023-01-19T22:41:30.233Z,99836.34
2023-01-19T22:44:00.130Z,99828.81
2023-01-19T22:46:30.328Z,99833.94
2023-01-19T22:48:59.318Z,99831.22
2023-01-19T22:51:30.194Z,99835.34
2023-01-19T22:53:58.825Z,99835.41
2023-01-19T22:56:28.523Z,99840.66
2023-01-19T22:58:57.160Z,99829.91
2023-01-19T23:01:27.712Z,99832.53
2023-01-19T23:03:57.069Z,99837.81
2023-01-19T23:06:27.008Z,99844.22
2023-01-19T23:08:58.266Z,99834.81
2023-01-19T23:11:29.414Z,99828.44
2023-01-19T23:13:59.440Z,99834.88
2023-01-19T23:16:27.947Z,99832.63
2023-01-19T23:18:57.241Z,99834.50
2023-01-19T23:21:27.780Z,99844.41
2023-01-19T23:23:58.621Z,99843.47
2023-01-19T23:26:27.418Z,99850.25
2023-01-19T23:28:57.179Z,99850.13
2023-01-19T23:31:26.924Z,99855.31
2023-01-19T23:33:57.396Z,99856.47
2023-01-19T23:36:27.047Z,99859.81
2023-01-19T23:38:59.012Z,99859.84
2023-01-19T23:41:28.757Z,99859.94
2023-01-19T23:43:57.454Z,99857.38
2023-01-19T23:46:25.913Z,99862.56
2023-01-19T23:48:54.114Z,99859.81
2023-01-19T23:51:24.866Z,99871.09
2023-01-19T23:53:53.464Z,99872.81
2023-01-19T23:56:26.124Z,99881.38
2023-01-19T23:58:56.220Z,99877.03
